sensor_id;sensor_type;location;lat;lon;timestamp;pressure;altitude;pressure_sealevel;temperature;humidity
11011;BME280;5558;42.702;23.178;2023-11-19T00:00:08;93608.19;;;2.03;100.00
11011;BME280;5558;42.702;23.178;2023-11-19T00:02:37;93615.56;;;2.13;100.00
11011;BME280;5558;42.702;23.178;2023-11-19T00:05:05;93625.78;;;2.14;100.00
11011;BME280;5558;42.702;23.178;2023-11-19T00:07:34;93629.00;;;2.10;100.00
11011;BME280;5558;42.702;23.178;2023-11-19T00:10:03;93604.97;;;2.01;100.00
11011;BME280;5558;42.702;23.178;2023-11-19T00:12:32;93618.53;;;2.16;100.00
11011;BME280;5558;42.702;23.178;2023-11-19T00:14:59;93627.19;;;2.10;100.00
11011;BME280;5558;42.702;23.178;2023-11-19T00:17:26;93638.03;;;2.14;100.00
11011;BME280;5558;42.702;23.178;2023-11-19T00:19:52;93631.31;;;2.24;100.00
11011;BME280;5558;42.702;23.178;2023-11-19T00:22:19;93617.56;;;2.11;100.00
11011;BME280;5558;42.702;23.178;2023-11-19T00:24:47;93626.63;;;2.08;100.00
11011;BME280;5558;42.702;23.178;2023-11-19T00:27:15;93629.06;;;2.03;100.00
11011;BME280;5558;42.702;23.178;2023-11-19T00:29:42;93621.44;;;2.02;100.00
11011;BME280;5558;42.702;23.178;2023-11-19T00:32:10;93627.47;;;2.02;100.00
11011;BME280;5558;42.702;23.178;2023-11-19T00:34:37;93615.44;;;2.01;100.00
11011;BME280;5558;42.702;23.178;2023-11-19T00:37:03;93615.69;;;1.93;100.00
11011;BME280;5558;42.702;23.178;2023-11-19T00:39:32;93629.13;;;1.97;100.00
11011;BME280;5558;42.702;23.178;2023-11-19T00:41:58;93631.47;;;2.05;100.00
11011;BME280;5558;42.702;23.178;2023-11-19T00:44:26;93626.13;;;1.93;100.00
11011;BME280;5558;42.702;23.178;2023-11-19T00:46:53;93641.34;;;1.96;100.00
11011;BME280;5558;42.702;23.178;2023-11-19T00:49:20;93630.47;;;2.06;100.00
11011;BME280;5558;42.702;23.178;2023-11-19T00:51:47;93644.13;;;2.01;100.00
11011;BME280;5558;42.702;23.178;2023-11-19T00:54:14;93645.00;;;1.95;100.00
11011;BME280;5558;42.702;23.178;2023-11-19T00:56:41;93640.97;;;1.99;100.00
11011;BME280;5558;42.702;23.178;2023-11-19T00:59:07;93642.31;;;2.02;100.00
11011;BME280;5558;42.702;23.178;2023-11-19T01:01:35;93638.50;;;2.04;100.00
11011;BME280;5558;42.702;23.178;2023-11-19T01:04:02;93632.59;;;1.91;100.00
11011;BME280;5558;42.702;23.178;2023-11-19T01:06:30;93617.53;;;1.93;100.00
11011;BME280;5558;42.702;23.178;2023-11-19T01:08:57;93646.78;;;1.95;100.00
11011;BME280;5558;42.702;23.178;2023-11-19T01:11:24;93642.53;;;2.00;100.00
11011;BME280;5558;42.702;23.178;2023-11-19T01:13:51;93644.72;;;2.03;100.00
11011;BME280;5558;42.702;23.178;2023-11-19T01:16:19;93640.59;;;1.96;100.00
11011;BME280;5558;42.702;23.178;2023-11-19T01:18:48;93652.59;;;1.97;100.00
11011;BME280;5558;42.702;23.178;2023-11-19T01:21:15;93641.34;;;1.96;100.00
11011;BME280;5558;42.702;23.178;2023-11-19T01:23:41;93656.03;;;1.97;100.00
11011;BME280;5558;42.702;23.178;2023-11-19T01:26:09;93663.00;;;2.03;100.00
11011;BME280;5558;42.702;23.178;2023-11-19T01:28:37;93666.41;;;2.04;100.00
11011;BME280;5558;42.702;23.178;2023-11-19T01:31:05;93655.16;;;2.03;100.00
11011;BME280;5558;42.702;23.178;2023-11-19T01:33:32;93668.59;;;2.07;100.00
11011;BME280;5558;42.702;23.178;2023-11-19T01:36:00;93665.44;;;1.98;100.00
11011;BME280;5558;42.702;23.178;2023-11-19T01:38:27;93662.53;;;2.13;100.00
11011;BME280;5558;42.702;23.178;2023-11-19T01:40:56;93663.75;;;2.10;100.00
11011;BME280;5558;42.702;23.178;2023-11-19T01:43:31;93677.00;;;2.09;100.00
11011;BME280;5558;42.702;23.178;2023-11-19T01:45:58;93639.28;;;1.80;100.00
11011;BME280;5558;42.702;23.178;2023-11-19T01:48:25;93670.44;;;2.00;100.00
11011;BME280;5558;42.702;23.178;2023-11-19T01:50:52;93668.91;;;1.92;100.00
11011;BME280;5558;42.702;23.178;2023-11-19T01:53:21;93669.50;;;1.94;100.00
11011;BME280;5558;42.702;23.178;2023-11-19T01:55:48;93669.53;;;1.88;100.00
11011;BME280;5558;42.702;23.178;2023-11-19T01:58:16;93666.34;;;1.86;100.00
11011;BME280;5558;42.702;23.178;2023-11-19T02:00:44;93658.75;;;1.84;100.00
11011;BME280;5558;42.702;23.178;2023-11-19T02:03:11;93658.22;;;1.69;100.00
11011;BME280;5558;42.702;23.178;2023-11-19T02:05:39;93656.66;;;1.62;100.00
11011;BME280;5558;42.702;23.178;2023-11-19T02:08:06;93652.47;;;1.54;100.00
11011;BME280;5558;42.702;23.178;2023-11-19T02:10:34;93647.47;;;1.53;100.00
11011;BME280;5558;42.702;23.178;2023-11-19T02:13:01;93651.75;;;1.47;100.00
11011;BME280;5558;42.702;23.178;2023-11-19T02:15:30;93660.53;;;1.53;100.00
11011;BME280;5558;42.702;23.178;2023-11-19T02:17:57;93658.56;;;1.48;100.00
11011;BME280;5558;42.702;23.178;2023-11-19T02:20:24;93662.53;;;1.51;100.00
11011;BME280;5558;42.702;23.178;2023-11-19T02:22:51;93670.53;;;1.56;100.00
11011;BME280;5558;42.702;23.178;2023-11-19T02:25:22;93663.94;;;1.53;100.00
11011;BME280;5558;42.702;23.178;2023-11-19T02:27:53;93662.13;;;1.54;100.00
11011;BME280;5558;42.702;23.178;2023-11-19T02:30:24;93657.50;;;1.56;100.00
11011;BME280;5558;42.702;23.178;2023-11-19T02:32:52;93634.69;;;1.45;100.00
11011;BME280;5558;42.702;23.178;2023-11-19T02:35:19;93643.06;;;1.53;100.00
11011;BME280;5558;42.702;23.178;2023-11-19T02:37:47;93632.84;;;1.52;100.00
11011;BME280;5558;42.702;23.178;2023-11-19T02:40:14;93650.50;;;1.50;100.00
11011;BME280;5558;42.702;23.178;2023-11-19T02:42:41;93650.91;;;1.53;100.00
11011;BME280;5558;42.702;23.178;2023-11-19T02:45:10;93656.13;;;1.53;100.00
11011;BME280;5558;42.702;23.178;2023-11-19T02:47:39;93660.34;;;1.48;100.00
11011;BME280;5558;42.702;23.178;2023-11-19T02:50:08;93675.00;;;1.49;100.00
11011;BME280;5558;42.702;23.178;2023-11-19T02:52:39;93672.59;;;1.47;100.00
11011;BME280;5558;42.702;23.178;2023-11-19T02:55:06;93668.97;;;1.48;100.00
11011;BME280;5558;42.702;23.178;2023-11-19T02:57:35;93657.31;;;1.51;100.00
11011;BME280;5558;42.702;23.178;2023-11-19T03:00:02;93656.38;;;1.45;100.00
11011;BME280;5558;42.702;23.178;2023-11-19T03:02:39;93660.72;;;1.51;100.00
11011;BME280;5558;42.702;23.178;2023-11-19T03:05:10;93661.75;;;1.50;100.00
11011;BME280;5558;42.702;23.178;2023-11-19T03:07:37;93656.16;;;1.47;100.00
11011;BME280;5558;42.702;23.178;2023-11-19T03:10:04;93667.22;;;1.36;100.00
11011;BME280;5558;42.702;23.178;2023-11-19T03:12:31;93670.69;;;1.30;100.00
11011;BME280;5558;42.702;23.178;2023-11-19T03:14:58;93663.25;;;1.33;100.00
11011;BME280;5558;42.702;23.178;2023-11-19T03:17:25;93670.47;;;1.31;100.00
11011;BME280;5558;42.702;23.178;2023-11-19T03:19:53;93673.72;;;1.27;100.00
11011;BME280;5558;42.702;23.178;2023-11-19T03:22:20;93676.06;;;1.35;100.00
11011;BME280;5558;42.702;23.178;2023-11-19T03:24:47;93681.09;;;1.30;100.00
11011;BME280;5558;42.702;23.178;2023-11-19T03:27:13;93677.06;;;1.40;100.00
11011;BME280;5558;42.702;23.178;2023-11-19T03:29:40;93665.59;;;1.41;100.00
11011;BME280;5558;42.702;23.178;2023-11-19T03:32:07;93673.00;;;1.44;100.00
11011;BME280;5558;42.702;23.178;2023-11-19T03:34:33;93674.19;;;1.48;100.00
11011;BME280;5558;42.702;23.178;2023-11-19T03:37:03;93677.78;;;1.54;100.00
11011;BME280;5558;42.702;23.178;2023-11-19T03:39:30;93684.38;;;1.56;100.00
11011;BME280;5558;42.702;23.178;2023-11-19T03:41:56;93696.22;;;1.59;100.00
11011;BME280;5558;42.702;23.178;2023-11-19T03:44:23;93698.00;;;1.58;100.00
11011;BME280;5558;42.702;23.178;2023-11-19T03:46:52;93710.03;;;1.59;100.00
11011;BME280;5558;42.702;23.178;2023-11-19T03:49:19;93714.47;;;1.59;100.00
11011;BME280;5558;42.702;23.178;2023-11-19T03:51:45;93710.66;;;1.55;100.00
11011;BME280;5558;42.702;23.178;2023-11-19T03:54:13;93710.03;;;1.59;100.00
11011;BME280;5558;42.702;23.178;2023-11-19T03:56:40;93710.03;;;1.66;100.00
11011;BME280;5558;42.702;23.178;2023-11-19T03:59:07;93689.44;;;1.45;100.00
11011;BME280;5558;42.702;23.178;2023-11-19T04:01:35;93718.38;;;1.81;100.00
11011;BME280;5558;42.702;23.178;2023-11-19T04:04:03;93706.94;;;1.75;100.00
11011;BME280;5558;42.702;23.178;2023-11-19T04:06:29;93712.75;;;1.77;100.00
11011;BME280;5558;42.702;23.178;2023-11-19T04:08:57;93697.09;;;1.77;100.00
11011;BME280;5558;42.702;23.178;2023-11-19T04:11:25;93711.78;;;1.72;100.00
11011;BME280;5558;42.702;23.178;2023-11-19T04:13:51;93703.56;;;1.68;100.00
11011;BME280;5558;42.702;23.178;2023-11-19T04:16:18;93707.75;;;1.76;100.00
11011;BME280;5558;42.702;23.178;2023-11-19T04:18:45;93712.59;;;1.72;100.00
11011;BME280;5558;42.702;23.178;2023-11-19T04:21:12;93703.56;;;1.68;100.00
11011;BME280;5558;42.702;23.178;2023-11-19T04:23:38;93699.94;;;1.69;100.00
11011;BME280;5558;42.702;23.178;2023-11-19T04:26:05;93689.56;;;1.63;100.00
11011;BME280;5558;42.702;23.178;2023-11-19T04:28:33;93706.25;;;1.55;100.00
11011;BME280;5558;42.702;23.178;2023-11-19T04:31:00;93714.28;;;1.54;100.00
11011;BME280;5558;42.702;23.178;2023-11-19T04:33:28;93714.94;;;1.43;100.00
11011;BME280;5558;42.702;23.178;2023-11-19T04:35:55;93675.56;;;1.13;100.00
11011;BME280;5558;42.702;23.178;2023-11-19T04:38:22;93709.78;;;1.30;100.00
11011;BME280;5558;42.702;23.178;2023-11-19T04:40:49;93713.97;;;1.31;100.00
11011;BME280;5558;42.702;23.178;2023-11-19T04:43:15;93707.19;;;1.23;100.00
11011;BME280;5558;42.702;23.178;2023-11-19T04:45:43;93707.34;;;1.35;100.00
11011;BME280;5558;42.702;23.178;2023-11-19T04:48:10;93712.38;;;1.30;100.00
11011;BME280;5558;42.702;23.178;2023-11-19T04:50:38;93719.34;;;1.42;100.00
11011;BME280;5558;42.702;23.178;2023-11-19T04:53:04;93723.13;;;1.46;100.00
11011;BME280;5558;42.702;23.178;2023-11-19T04:55:31;93719.91;;;1.51;100.00
11011;BME280;5558;42.702;23.178;2023-11-19T04:57:58;93716.53;;;1.44;100.00
11011;BME280;5558;42.702;23.178;2023-11-19T05:00:24;93722.78;;;1.36;100.00
11011;BME280;5558;42.702;23.178;2023-11-19T05:02:53;93744.19;;;1.51;100.00
11011;BME280;5558;42.702;23.178;2023-11-19T05:05:20;93747.94;;;1.62;100.00
11011;BME280;5558;42.702;23.178;2023-11-19T05:07:46;93750.41;;;1.50;100.00
11011;BME280;5558;42.702;23.178;2023-11-19T05:10:14;93736.41;;;1.38;100.00
11011;BME280;5558;42.702;23.178;2023-11-19T05:12:40;93762.00;;;1.54;100.00
11011;BME280;5558;42.702;23.178;2023-11-19T05:15:08;93761.44;;;1.52;100.00
11011;BME280;5558;42.702;23.178;2023-11-19T05:17:37;93759.81;;;1.51;100.00
11011;BME280;5558;42.702;23.178;2023-11-19T05:20:06;93754.00;;;1.49;100.00
11011;BME280;5558;42.702;23.178;2023-11-19T05:22:39;93748.41;;;1.52;100.00
11011;BME280;5558;42.702;23.178;2023-11-19T05:25:06;93755.25;;;1.47;100.00
11011;BME280;5558;42.702;23.178;2023-11-19T05:27:34;93748.78;;;1.49;100.00
11011;BME280;5558;42.702;23.178;2023-11-19T05:30:01;93739.38;;;1.48;100.00
11011;BME280;5558;42.702;23.178;2023-11-19T05:32:27;93736.00;;;1.41;100.00
11011;BME280;5558;42.702;23.178;2023-11-19T05:34:54;93735.56;;;1.44;100.00
11011;BME280;5558;42.702;23.178;2023-11-19T05:37:22;93744.34;;;1.56;100.00
11011;BME280;5558;42.702;23.178;2023-11-19T05:39:50;93748.97;;;1.61;100.00
11011;BME280;5558;42.702;23.178;2023-11-19T05:42:17;93750.00;;;1.53;100.00
11011;BME280;5558;42.702;23.178;2023-11-19T05:44:44;93764.63;;;1.54;100.00
11011;BME280;5558;42.702;23.178;2023-11-19T05:47:11;93767.66;;;1.45;100.00
11011;BME280;5558;42.702;23.178;2023-11-19T05:49:39;93765.66;;;1.47;100.00
11011;BME280;5558;42.702;23.178;2023-11-19T05:52:06;93773.50;;;1.47;100.00
11011;BME280;5558;42.702;23.178;2023-11-19T05:54:36;93737.06;;;1.20;100.00
11011;BME280;5558;42.702;23.178;2023-11-19T05:57:04;93775.88;;;1.48;100.00
11011;BME280;5558;42.702;23.178;2023-11-19T05:59:31;93783.25;;;1.58;100.00
11011;BME280;5558;42.702;23.178;2023-11-19T06:01:58;93790.91;;;1.53;100.00
11011;BME280;5558;42.702;23.178;2023-11-19T06:04:25;93799.53;;;1.53;100.00
11011;BME280;5558;42.702;23.178;2023-11-19T06:06:52;93799.13;;;1.56;100.00
11011;BME280;5558;42.702;23.178;2023-11-19T06:09:20;93801.94;;;1.55;100.00
11011;BME280;5558;42.702;23.178;2023-11-19T06:11:51;93796.94;;;1.53;100.00
11011;BME280;5558;42.702;23.178;2023-11-19T06:14:17;93789.25;;;1.65;100.00
11011;BME280;5558;42.702;23.178;2023-11-19T06:16:44;93780.66;;;1.58;100.00
11011;BME280;5558;42.702;23.178;2023-11-19T06:19:11;93792.31;;;1.55;100.00
11011;BME280;5558;42.702;23.178;2023-11-19T06:21:38;93780.91;;;1.50;100.00
11011;BME280;5558;42.702;23.178;2023-11-19T06:24:05;93789.72;;;1.49;100.00
11011;BME280;5558;42.702;23.178;2023-11-19T06:26:32;93796.94;;;1.53;100.00
11011;BME280;5558;42.702;23.178;2023-11-19T06:29:00;93794.41;;;1.34;100.00
11011;BME280;5558;42.702;23.178;2023-11-19T06:31:27;93803.78;;;1.41;100.00
11011;BME280;5558;42.702;23.178;2023-11-19T06:33:53;93796.19;;;1.33;100.00
11011;BME280;5558;42.702;23.178;2023-11-19T06:36:20;93805.81;;;1.33;100.00
11011;BME280;5558;42.702;23.178;2023-11-19T06:38:47;93809.22;;;1.33;100.00
11011;BME280;5558;42.702;23.178;2023-11-19T06:41:13;93806.81;;;1.32;100.00
11011;BME280;5558;42.702;23.178;2023-11-19T06:43:40;93796.59;;;1.37;100.00
11011;BME280;5558;42.702;23.178;2023-11-19T06:46:15;93806.41;;;1.41;100.00
11011;BME280;5558;42.702;23.178;2023-11-19T06:48:42;93811.19;;;1.44;100.00
11011;BME280;5558;42.702;23.178;2023-11-19T06:51:09;93796.41;;;1.32;100.00
11011;BME280;5558;42.702;23.178;2023-11-19T06:53:36;93799.78;;;1.39;100.00
11011;BME280;5558;42.702;23.178;2023-11-19T06:56:05;93811.22;;;1.38;100.00
11011;BME280;5558;42.702;23.178;2023-11-19T06:58:35;93822.06;;;1.35;100.00
11011;BME280;5558;42.702;23.178;2023-11-19T07:01:02;93817.25;;;1.38;100.00
11011;BME280;5558;42.702;23.178;2023-11-19T07:03:31;93809.00;;;1.41;100.00
11011;BME280;5558;42.702;23.178;2023-11-19T07:05:58;93809.56;;;1.50;100.00
11011;BME280;5558;42.702;23.178;2023-11-19T07:08:24;93816.34;;;1.64;100.00
11011;BME280;5558;42.702;23.178;2023-11-19T07:10:52;93815.09;;;1.79;100.00
11011;BME280;5558;42.702;23.178;2023-11-19T07:13:18;93809.81;;;1.92;100.00
11011;BME280;5558;42.702;23.178;2023-11-19T07:15:46;93825.78;;;2.09;100.00
11011;BME280;5558;42.702;23.178;2023-11-19T07:18:13;93823.75;;;2.17;100.00
11011;BME280;5558;42.702;23.178;2023-11-19T07:20:41;93822.88;;;2.30;100.00
11011;BME280;5558;42.702;23.178;2023-11-19T07:23:08;93790.81;;;2.16;100.00
11011;BME280;5558;42.702;23.178;2023-11-19T07:25:34;93824.63;;;2.36;100.00
11011;BME280;5558;42.702;23.178;2023-11-19T07:28:02;93819.78;;;2.39;100.00
11011;BME280;5558;42.702;23.178;2023-11-19T07:30:30;93833.94;;;2.25;100.00
11011;BME280;5558;42.702;23.178;2023-11-19T07:32:57;93842.56;;;2.26;100.00
11011;BME280;5558;42.702;23.178;2023-11-19T07:35:24;93847.22;;;2.17;100.00
11011;BME280;5558;42.702;23.178;2023-11-19T07:37:52;93830.44;;;2.00;100.00
11011;BME280;5558;42.702;23.178;2023-11-19T07:40:19;93805.66;;;1.78;100.00
11011;BME280;5558;42.702;23.178;2023-11-19T07:42:46;93834.06;;;1.99;100.00
11011;BME280;5558;42.702;23.178;2023-11-19T07:45:13;93819.59;;;2.03;100.00
11011;BME280;5558;42.702;23.178;2023-11-19T07:47:40;93816.38;;;2.01;100.00
11011;BME280;5558;42.702;23.178;2023-11-19T07:50:07;93837.72;;;1.92;100.00
11011;BME280;5558;42.702;23.178;2023-11-19T07:52:35;93846.78;;;1.89;100.00
11011;BME280;5558;42.702;23.178;2023-11-19T07:55:03;93845.41;;;1.74;100.00
11011;BME280;5558;42.702;23.178;2023-11-19T07:57:30;93832.34;;;1.80;100.00
11011;BME280;5558;42.702;23.178;2023-11-19T07:59:57;93825.28;;;1.87;100.00
11011;BME280;5558;42.702;23.178;2023-11-19T08:02:24;93846.63;;;1.65;100.00
11011;BME280;5558;42.702;23.178;2023-11-19T08:04:51;93852.06;;;1.63;100.00
11011;BME280;5558;42.702;23.178;2023-11-19T08:07:20;93855.47;;;1.70;100.00
11011;BME280;5558;42.702;23.178;2023-11-19T08:09:47;93848.06;;;1.67;100.00
11011;BME280;5558;42.702;23.178;2023-11-19T08:12:15;93861.47;;;1.71;100.00
11011;BME280;5558;42.702;23.178;2023-11-19T08:14:43;93858.50;;;1.61;100.00
11011;BME280;5558;42.702;23.178;2023-11-19T08:17:09;93873.75;;;1.57;100.00
11011;BME280;5558;42.702;23.178;2023-11-19T08:19:36;93865.28;;;1.75;100.00
11011;BME280;5558;42.702;23.178;2023-11-19T08:22:03;93833.25;;;1.48;100.00
11011;BME280;5558;42.702;23.178;2023-11-19T08:24:30;93860.06;;;1.75;100.00
11011;BME280;5558;42.702;23.178;2023-11-19T08:26:57;93861.44;;;1.84;100.00
11011;BME280;5558;42.702;23.178;2023-11-19T08:29:25;93860.00;;;1.94;100.00
11011;BME280;5558;42.702;23.178;2023-11-19T08:31:52;93850.50;;;2.00;100.00
11011;BME280;5558;42.702;23.178;2023-11-19T08:34:19;93869.38;;;2.02;100.00
11011;BME280;5558;42.702;23.178;2023-11-19T08:36:46;93877.16;;;2.15;100.00
11011;BME280;5558;42.702;23.178;2023-11-19T08:39:16;93880.81;;;2.07;100.00
11011;BME280;5558;42.702;23.178;2023-11-19T08:41:43;93896.25;;;2.09;100.00
11011;BME280;5558;42.702;23.178;2023-11-19T08:44:09;93884.03;;;2.09;100.00
11011;BME280;5558;42.702;23.178;2023-11-19T08:46:39;93891.00;;;2.15;100.00
11011;BME280;5558;42.702;23.178;2023-11-19T08:49:06;93880.31;;;2.23;100.00
11011;BME280;5558;42.702;23.178;2023-11-19T08:51:33;93878.06;;;2.33;100.00
11011;BME280;5558;42.702;23.178;2023-11-19T08:54:00;93869.88;;;2.30;100.00
11011;BME280;5558;42.702;23.178;2023-11-19T08:56:27;93879.25;;;2.37;100.00
11011;BME280;5558;42.702;23.178;2023-11-19T08:58:58;93879.25;;;2.37;100.00
11011;BME280;5558;42.702;23.178;2023-11-19T09:01:24;93881.41;;;2.47;100.00
11011;BME280;5558;42.702;23.178;2023-11-19T09:03:52;93886.03;;;2.52;100.00
11011;BME280;5558;42.702;23.178;2023-11-19T09:06:19;93889.44;;;2.45;100.00
11011;BME280;5558;42.702;23.178;2023-11-19T09:08:46;93884.88;;;2.41;100.00
11011;BME280;5558;42.702;23.178;2023-11-19T09:11:13;93880.09;;;2.31;100.00
11011;BME280;5558;42.702;23.178;2023-11-19T09:13:39;93871.13;;;2.21;100.00
11011;BME280;5558;42.702;23.178;2023-11-19T09:16:07;93869.66;;;2.31;100.00
11011;BME280;5558;42.702;23.178;2023-11-19T09:18:34;93862.59;;;2.32;100.00
11011;BME280;5558;42.702;23.178;2023-11-19T09:21:03;93865.09;;;2.20;100.00
11011;BME280;5558;42.702;23.178;2023-11-19T09:23:29;93858.53;;;2.11;100.00
11011;BME280;5558;42.702;23.178;2023-11-19T09:26:01;93877.53;;;2.18;100.00
11011;BME280;5558;42.702;23.178;2023-11-19T09:28:27;93884.75;;;2.23;100.00
11011;BME280;5558;42.702;23.178;2023-11-19T09:30:54;93877.25;;;2.39;100.00
11011;BME280;5558;42.702;23.178;2023-11-19T09:33:21;93816.47;;;2.26;100.00
11011;BME280;5558;42.702;23.178;2023-11-19T09:35:48;93863.59;;;2.69;100.00
11011;BME280;5558;42.702;23.178;2023-11-19T09:38:17;93841.91;;;2.68;100.00
11011;BME280;5558;42.702;23.178;2023-11-19T09:40:43;93845.09;;;2.70;100.00
11011;BME280;5558;42.702;23.178;2023-11-19T09:43:10;93852.69;;;2.78;100.00
11011;BME280;5558;42.702;23.178;2023-11-19T09:45:47;93840.09;;;2.93;100.00
11011;BME280;5558;42.702;23.178;2023-11-19T09:48:16;93827.50;;;3.08;100.00
11011;BME280;5558;42.702;23.178;2023-11-19T09:50:44;93822.97;;;3.22;100.00
11011;BME280;5558;42.702;23.178;2023-11-19T09:53:11;93826.66;;;3.14;100.00
11011;BME280;5558;42.702;23.178;2023-11-19T09:55:39;93824.56;;;2.98;100.00
11011;BME280;5558;42.702;23.178;2023-11-19T09:58:06;93817.53;;;2.99;100.00
11011;BME280;5558;42.702;23.178;2023-11-19T10:00:33;93805.91;;;2.95;100.00
11011;BME280;5558;42.702;23.178;2023-11-19T10:03:00;93823.66;;;3.11;100.00
11011;BME280;5558;42.702;23.178;2023-11-19T10:05:27;93788.09;;;2.85;100.00
11011;BME280;5558;42.702;23.178;2023-11-19T10:07:54;93819.06;;;3.06;100.00
11011;BME280;5558;42.702;23.178;2023-11-19T10:10:21;93817.69;;;3.04;100.00
11011;BME280;5558;42.702;23.178;2023-11-19T10:12:50;93812.16;;;2.94;100.00
11011;BME280;5558;42.702;23.178;2023-11-19T10:15:20;93818.28;;;3.06;100.00
11011;BME280;5558;42.702;23.178;2023-11-19T10:17:47;93833.75;;;3.07;100.00
11011;BME280;5558;42.702;23.178;2023-11-19T10:20:14;93833.50;;;2.91;100.00
11011;BME280;5558;42.702;23.178;2023-11-19T10:22:41;93836.06;;;2.97;100.00
11011;BME280;5558;42.702;23.178;2023-11-19T10:25:21;93819.88;;;3.07;100.00
11011;BME280;5558;42.702;23.178;2023-11-19T10:27:50;93819.38;;;3.16;100.00
11011;BME280;5558;42.702;23.178;2023-11-19T10:30:18;93807.56;;;3.14;100.00
11011;BME280;5558;42.702;23.178;2023-11-19T10:32:44;93806.81;;;3.25;100.00
11011;BME280;5558;42.702;23.178;2023-11-19T10:35:11;93807.72;;;3.37;100.00
11011;BME280;5558;42.702;23.178;2023-11-19T10:37:38;93808.59;;;3.49;100.00
11011;BME280;5558;42.702;23.178;2023-11-19T10:40:07;93808.44;;;3.44;100.00
11011;BME280;5558;42.702;23.178;2023-11-19T10:42:35;93817.25;;;3.49;100.00
11011;BME280;5558;42.702;23.178;2023-11-19T10:45:04;93804.25;;;3.61;100.00
11011;BME280;5558;42.702;23.178;2023-11-19T10:47:31;93810.06;;;3.81;100.00
11011;BME280;5558;42.702;23.178;2023-11-19T10:49:59;93817.09;;;3.81;100.00
11011;BME280;5558;42.702;23.178;2023-11-19T10:52:27;93807.81;;;3.66;100.00
11011;BME280;5558;42.702;23.178;2023-11-19T10:54:55;93819.78;;;3.74;100.00
11011;BME280;5558;42.702;23.178;2023-11-19T10:57:30;93804.47;;;3.96;100.00
11011;BME280;5558;42.702;23.178;2023-11-19T11:00:01;93809.25;;;3.99;100.00
11011;BME280;5558;42.702;23.178;2023-11-19T11:02:34;93798.88;;;4.22;100.00
11011;BME280;5558;42.702;23.178;2023-11-19T11:05:02;93791.59;;;4.24;100.00
11011;BME280;5558;42.702;23.178;2023-11-19T11:07:30;93787.56;;;4.21;99.90
11011;BME280;5558;42.702;23.178;2023-11-19T11:09:58;93783.31;;;4.38;98.90
11011;BME280;5558;42.702;23.178;2023-11-19T11:12:25;93776.75;;;4.59;99.40
11011;BME280;5558;42.702;23.178;2023-11-19T11:14:53;93780.53;;;4.63;94.10
11011;BME280;5558;42.702;23.178;2023-11-19T11:17:24;93770.81;;;4.52;96.48
11011;BME280;5558;42.702;23.178;2023-11-19T11:19:56;93757.66;;;4.29;94.64
11011;BME280;5558;42.702;23.178;2023-11-19T11:22:23;93767.88;;;4.19;96.26
11011;BME280;5558;42.702;23.178;2023-11-19T11:25:08;93754.25;;;4.28;97.61
11011;BME280;5558;42.702;23.178;2023-11-19T11:28:09;93766.00;;;4.37;96.55
11011;BME280;5558;42.702;23.178;2023-11-19T11:30:49;93760.75;;;4.26;96.07
11011;BME280;5558;42.702;23.178;2023-11-19T11:33:30;93756.63;;;4.30;94.80
11011;BME280;5558;42.702;23.178;2023-11-19T11:36:10;93743.06;;;4.21;93.28
11011;BME280;5558;42.702;23.178;2023-11-19T11:38:40;93748.13;;;4.34;89.77
11011;BME280;5558;42.702;23.178;2023-11-19T11:41:18;93745.16;;;4.42;91.87
11011;BME280;5558;42.702;23.178;2023-11-19T11:43:45;93743.34;;;4.43;88.82
11011;BME280;5558;42.702;23.178;2023-11-19T11:49:12;93718.97;;;4.54;85.94
11011;BME280;5558;42.702;23.178;2023-11-19T11:51:59;93731.28;;;4.53;84.63
11011;BME280;5558;42.702;23.178;2023-11-19T11:54:26;93739.97;;;4.65;84.03
11011;BME280;5558;42.702;23.178;2023-11-19T11:57:08;93707.03;;;4.58;86.37
11011;BME280;5558;42.702;23.178;2023-11-19T11:59:48;93737.59;;;4.98;85.33
11011;BME280;5558;42.702;23.178;2023-11-19T12:02:17;93730.28;;;4.89;80.65
11011;BME280;5558;42.702;23.178;2023-11-19T12:04:47;93731.44;;;4.81;81.56
11011;BME280;5558;42.702;23.178;2023-11-19T12:07:19;93725.75;;;4.84;85.23
11011;BME280;5558;42.702;23.178;2023-11-19T12:09:52;93720.50;;;4.84;85.71
11011;BME280;5558;42.702;23.178;2023-11-19T12:12:26;93680.03;;;4.57;83.93
11011;BME280;5558;42.702;23.178;2023-11-19T12:15:01;93712.88;;;4.83;85.36
11011;BME280;5558;42.702;23.178;2023-11-19T12:17:44;93705.56;;;4.96;83.36
11011;BME280;5558;42.702;23.178;2023-11-19T12:20:15;93708.53;;;5.00;80.52
11011;BME280;5558;42.702;23.178;2023-11-19T12:22:44;93700.19;;;5.03;81.66
11011;BME280;5558;42.702;23.178;2023-11-19T12:25:12;93699.97;;;5.05;77.16
11011;BME280;5558;42.702;23.178;2023-11-19T12:27:40;93688.56;;;4.87;81.46
11011;BME280;5558;42.702;23.178;2023-11-19T12:30:08;93699.16;;;5.04;86.18
11011;BME280;5558;42.702;23.178;2023-11-19T12:32:41;93694.16;;;5.03;84.31
11011;BME280;5558;42.702;23.178;2023-11-19T12:35:09;93681.16;;;4.96;83.36
11011;BME280;5558;42.702;23.178;2023-11-19T12:37:43;93696.31;;;5.17;83.69
11011;BME280;5558;42.702;23.178;2023-11-19T12:40:17;93693.22;;;5.20;80.75
11011;BME280;5558;42.702;23.178;2023-11-19T12:42:44;93683.41;;;5.27;80.03
11011;BME280;5558;42.702;23.178;2023-11-19T12:45:11;93683.75;;;5.31;78.43
11011;BME280;5558;42.702;23.178;2023-11-19T12:47:39;93686.81;;;5.39;78.88
11011;BME280;5558;42.702;23.178;2023-11-19T12:50:06;93672.09;;;5.27;77.20
11011;BME280;5558;42.702;23.178;2023-11-19T12:52:34;93682.16;;;5.18;75.96
11011;BME280;5558;42.702;23.178;2023-11-19T12:55:03;93676.34;;;5.16;79.33
11011;BME280;5558;42.702;23.178;2023-11-19T12:57:37;93680.47;;;5.12;77.47
11011;BME280;5558;42.702;23.178;2023-11-19T13:00:05;93674.06;;;5.20;77.99
11011;BME280;5558;42.702;23.178;2023-11-19T13:02:45;93667.47;;;5.17;80.30
11011;BME280;5558;42.702;23.178;2023-11-19T13:05:27;93671.44;;;5.20;80.25
11011;BME280;5558;42.702;23.178;2023-11-19T13:08:01;93670.97;;;5.23;75.11
11011;BME280;5558;42.702;23.178;2023-11-19T13:10:30;93666.75;;;5.22;72.30